sensor_id;sensor_type;location;lat;lon;timestamp;temperature;humidity
68922;DHT22;55959;51.244;5.724;2022-07-29T00:03:55;23.00;45.60
68922;DHT22;55959;51.244;5.724;2022-07-29T00:06:21;23.00;45.50
68922;DHT22;55959;51.244;5.724;2022-07-29T00:08:47;23.00;45.60
68922;DHT22;55959;51.244;5.724;2022-07-29T00:11:13;22.90;45.60
68922;DHT22;55959;51.244;5.724;2022-07-29T00:13:39;22.90;45.60
68922;DHT22;55959;51.244;5.724;2022-07-29T00:16:04;22.90;45.70
68922;DHT22;55959;51.244;5.724;2022-07-29T00:18:31;22.90;45.70
68922;DHT22;55959;51.244;5.724;2022-07-29T00:20:57;22.90;45.70
68922;DHT22;55959;51.244;5.724;2022-07-29T00:23:22;22.90;45.60
68922;DHT22;55959;51.244;5.724;2022-07-29T00:25:48;22.90;45.60
68922;DHT22;55959;51.244;5.724;2022-07-29T00:28:14;22.90;45.80
68922;DHT22;55959;51.244;5.724;2022-07-29T00:30:39;22.90;47.20
68922;DHT22;55959;51.244;5.724;2022-07-29T00:33:08;22.80;48.50
68922;DHT22;55959;51.244;5.724;2022-07-29T00:35:34;22.80;50.80
68922;DHT22;55959;51.244;5.724;2022-07-29T00:38:10;22.80;51.80
68922;DHT22;55959;51.244;5.724;2022-07-29T00:40:36;22.70;52.30
68922;DHT22;55959;51.244;5.724;2022-07-29T00:43:02;22.60;53.40
68922;DHT22;55959;51.244;5.724;2022-07-29T00:45:28;22.50;54.00
68922;DHT22;55959;51.244;5.724;2022-07-29T01:06:20;22.10;56.00
68922;DHT22;55959;51.244;5.724;2022-07-29T01:08:47;22.00;56.00
68922;DHT22;55959;51.244;5.724;2022-07-29T01:11:15;22.00;56.10
68922;DHT22;55959;51.244;5.724;2022-07-29T01:13:43;22.00;56.10
68922;DHT22;55959;51.244;5.724;2022-07-29T01:16:15;21.90;56.20
68922;DHT22;55959;51.244;5.724;2022-07-29T01:18:46;22.00;56.10
68922;DHT22;55959;51.244;5.724;2022-07-29T01:21:52;21.90;56.20
68922;DHT22;55959;51.244;5.724;2022-07-29T01:29:52;21.80;56.60
68922;DHT22;55959;51.244;5.724;2022-07-29T01:32:24;21.80;56.80
68922;DHT22;55959;51.244;5.724;2022-07-29T01:35:00;21.80;56.90
68922;DHT22;55959;51.244;5.724;2022-07-29T01:45:03;21.70;57.30
68922;DHT22;55959;51.244;5.724;2022-07-29T01:47:37;21.60;57.40
68922;DHT22;55959;51.244;5.724;2022-07-29T01:50:08;21.60;57.40
68922;DHT22;55959;51.244;5.724;2022-07-29T01:52:42;21.60;57.40
68922;DHT22;55959;51.244;5.724;2022-07-29T01:55:15;21.60;57.50
68922;DHT22;55959;51.244;5.724;2022-07-29T01:57:46;21.60;58.20
68922;DHT22;55959;51.244;5.724;2022-07-29T02:00:14;21.60;57.60
68922;DHT22;55959;51.244;5.724;2022-07-29T02:02:42;21.50;57.60
68922;DHT22;55959;51.244;5.724;2022-07-29T02:05:12;21.50;57.60
68922;DHT22;55959;51.244;5.724;2022-07-29T02:07:42;21.50;57.60
68922;DHT22;55959;51.244;5.724;2022-07-29T02:10:10;21.50;57.70
68922;DHT22;55959;51.244;5.724;2022-07-29T02:12:38;21.50;57.60
68922;DHT22;55959;51.244;5.724;2022-07-29T02:15:06;21.50;57.60
68922;DHT22;55959;51.244;5.724;2022-07-29T02:17:38;21.40;57.60
68922;DHT22;55959;51.244;5.724;2022-07-29T02:20:09;21.40;57.80
68922;DHT22;55959;51.244;5.724;2022-07-29T02:22:38;21.40;57.70
68922;DHT22;55959;51.244;5.724;2022-07-29T02:25:07;21.30;57.70
68922;DHT22;55959;51.244;5.724;2022-07-29T02:27:34;21.30;57.80
68922;DHT22;55959;51.244;5.724;2022-07-29T02:30:02;21.40;58.00
68922;DHT22;55959;51.244;5.724;2022-07-29T02:32:29;21.30;57.90
68922;DHT22;55959;51.244;5.724;2022-07-29T02:34:56;21.30;57.90
68922;DHT22;55959;51.244;5.724;2022-07-29T02:37:24;21.30;58.00
68922;DHT22;55959;51.244;5.724;2022-07-29T02:39:53;21.20;57.80
68922;DHT22;55959;51.244;5.724;2022-07-29T02:42:22;21.20;57.80
68922;DHT22;55959;51.244;5.724;2022-07-29T02:44:48;21.20;57.80
68922;DHT22;55959;51.244;5.724;2022-07-29T02:47:42;21.20;57.70
68922;DHT22;55959;51.244;5.724;2022-07-29T02:50:17;21.20;58.00
68922;DHT22;55959;51.244;5.724;2022-07-29T02:53:06;21.20;58.20
68922;DHT22;55959;51.244;5.724;2022-07-29T02:55:43;21.10;58.10
68922;DHT22;55959;51.244;5.724;2022-07-29T02:58:27;21.10;58.20
68922;DHT22;55959;51.244;5.724;2022-07-29T03:00:57;21.10;58.50
68922;DHT22;55959;51.244;5.724;2022-07-29T03:03:29;21.00;58.60
68922;DHT22;55959;51.244;5.724;2022-07-29T03:05:59;21.00;58.70
68922;DHT22;55959;51.244;5.724;2022-07-29T03:08:27;21.00;58.80
68922;DHT22;55959;51.244;5.724;2022-07-29T03:10:53;21.00;58.90
68922;DHT22;55959;51.244;5.724;2022-07-29T03:13:19;21.00;58.90
68922;DHT22;55959;51.244;5.724;2022-07-29T03:15:46;21.00;59.00
68922;DHT22;55959;51.244;5.724;2022-07-29T03:18:13;20.90;59.00
68922;DHT22;55959;51.244;5.724;2022-07-29T03:20:39;20.90;59.10
68922;DHT22;55959;51.244;5.724;2022-07-29T03:23:06;21.00;59.20
68922;DHT22;55959;51.244;5.724;2022-07-29T03:25:33;20.90;59.20
68922;DHT22;55959;51.244;5.724;2022-07-29T03:27:59;20.90;59.30
68922;DHT22;55959;51.244;5.724;2022-07-29T03:30:25;20.90;59.40
68922;DHT22;55959;51.244;5.724;2022-07-29T03:32:52;20.90;59.50
68922;DHT22;55959;51.244;5.724;2022-07-29T03:35:21;20.90;59.50
68922;DHT22;55959;51.244;5.724;2022-07-29T03:37:48;20.80;59.50
68922;DHT22;55959;51.244;5.724;2022-07-29T03:40:20;20.80;59.50
68922;DHT22;55959;51.244;5.724;2022-07-29T03:42:50;20.80;59.50
68922;DHT22;55959;51.244;5.724;2022-07-29T03:45:18;20.80;59.70
68922;DHT22;55959;51.244;5.724;2022-07-29T03:47:48;20.80;59.80
68922;DHT22;55959;51.244;5.724;2022-07-29T03:50:16;20.80;59.80
68922;DHT22;55959;51.244;5.724;2022-07-29T03:52:45;20.70;59.70
68922;DHT22;55959;51.244;5.724;2022-07-29T03:55:11;20.70;59.90
68922;DHT22;55959;51.244;5.724;2022-07-29T03:57:38;20.70;59.90
68922;DHT22;55959;51.244;5.724;2022-07-29T04:00:05;20.70;59.90
68922;DHT22;55959;51.244;5.724;2022-07-29T04:02:32;20.70;60.00
68922;DHT22;55959;51.244;5.724;2022-07-29T04:04:59;20.60;60.00
68922;DHT22;55959;51.244;5.724;2022-07-29T04:07:25;20.60;60.10
68922;DHT22;55959;51.244;5.724;2022-07-29T04:09:50;20.60;60.10
68922;DHT22;55959;51.244;5.724;2022-07-29T04:12:16;20.60;60.20
68922;DHT22;55959;51.244;5.724;2022-07-29T04:14:42;20.60;60.30
68922;DHT22;55959;51.244;5.724;2022-07-29T04:17:08;20.60;60.40
68922;DHT22;55959;51.244;5.724;2022-07-29T04:19:34;20.50;60.40
68922;DHT22;55959;51.244;5.724;2022-07-29T04:22:00;20.60;60.60
68922;DHT22;55959;51.244;5.724;2022-07-29T04:24:27;20.50;60.60
68922;DHT22;55959;51.244;5.724;2022-07-29T04:26:53;20.50;60.60
68922;DHT22;55959;51.244;5.724;2022-07-29T04:29:19;20.50;60.60
68922;DHT22;55959;51.244;5.724;2022-07-29T04:31:45;20.50;60.60
68922;DHT22;55959;51.244;5.724;2022-07-29T04:34:11;20.50;60.60
68922;DHT22;55959;51.244;5.724;2022-07-29T04:36:37;20.50;60.80
68922;DHT22;55959;51.244;5.724;2022-07-29T04:39:03;20.50;60.80
68922;DHT22;55959;51.244;5.724;2022-07-29T04:41:29;20.50;60.80
68922;DHT22;55959;51.244;5.724;2022-07-29T04:43:56;20.50;60.80
68922;DHT22;55959;51.244;5.724;2022-07-29T04:46:22;20.40;60.90
68922;DHT22;55959;51.244;5.724;2022-07-29T04:48:48;20.50;61.00
68922;DHT22;55959;51.244;5.724;2022-07-29T04:51:15;20.40;61.20
68922;DHT22;55959;51.244;5.724;2022-07-29T04:53:41;20.40;61.00
68922;DHT22;55959;51.244;5.724;2022-07-29T04:56:06;20.40;61.00
68922;DHT22;55959;51.244;5.724;2022-07-29T04:58:35;20.40;61.20
68922;DHT22;55959;51.244;5.724;2022-07-29T05:01:02;20.40;62.40
68922;DHT22;55959;51.244;5.724;2022-07-29T05:03:29;20.40;61.50
68922;DHT22;55959;51.244;5.724;2022-07-29T05:05:55;20.40;61.60
68922;DHT22;55959;51.244;5.724;2022-07-29T05:08:21;20.40;61.60
68922;DHT22;55959;51.244;5.724;2022-07-29T05:10:47;20.40;61.60
68922;DHT22;55959;51.244;5.724;2022-07-29T05:13:13;20.40;61.70
68922;DHT22;55959;51.244;5.724;2022-07-29T05:15:39;20.40;61.80
68922;DHT22;55959;51.244;5.724;2022-07-29T05:18:06;20.30;61.80
68922;DHT22;55959;51.244;5.724;2022-07-29T05:20:32;20.30;61.80
68922;DHT22;55959;51.244;5.724;2022-07-29T05:23:00;20.30;62.00
68922;DHT22;55959;51.244;5.724;2022-07-29T05:25:28;20.30;62.00
68922;DHT22;55959;51.244;5.724;2022-07-29T05:27:54;20.40;62.20
68922;DHT22;55959;51.244;5.724;2022-07-29T05:30:20;20.30;62.20
68922;DHT22;55959;51.244;5.724;2022-07-29T05:32:46;20.30;62.20
68922;DHT22;55959;51.244;5.724;2022-07-29T05:35:12;20.30;62.20
68922;DHT22;55959;51.244;5.724;2022-07-29T05:37:39;20.30;62.40
68922;DHT22;55959;51.244;5.724;2022-07-29T05:40:05;20.30;62.30
68922;DHT22;55959;51.244;5.724;2022-07-29T05:42:32;20.30;62.40
68922;DHT22;55959;51.244;5.724;2022-07-29T05:44:58;20.30;62.40
68922;DHT22;55959;51.244;5.724;2022-07-29T05:47:24;20.30;62.50
68922;DHT22;55959;51.244;5.724;2022-07-29T05:49:49;20.20;62.40
68922;DHT22;55959;51.244;5.724;2022-07-29T05:52:16;20.20;62.40
68922;DHT22;55959;51.244;5.724;2022-07-29T05:54:42;20.30;62.50
68922;DHT22;55959;51.244;5.724;2022-07-29T05:57:08;20.20;62.50
68922;DHT22;55959;51.244;5.724;2022-07-29T05:59:38;20.30;62.40
68922;DHT22;55959;51.244;5.724;2022-07-29T06:02:04;20.20;62.40
68922;DHT22;55959;51.244;5.724;2022-07-29T06:04:33;20.20;62.50
68922;DHT22;55959;51.244;5.724;2022-07-29T06:06:58;20.20;62.60
68922;DHT22;55959;51.244;5.724;2022-07-29T06:09:24;20.20;62.60
68922;DHT22;55959;51.244;5.724;2022-07-29T06:11:51;20.30;62.80
68922;DHT22;55959;51.244;5.724;2022-07-29T06:14:17;20.30;62.80
68922;DHT22;55959;51.244;5.724;2022-07-29T06:16:43;20.20;62.80
68922;DHT22;55959;51.244;5.724;2022-07-29T06:19:10;20.20;63.00
68922;DHT22;55959;51.244;5.724;2022-07-29T06:21:35;20.20;63.00
68922;DHT22;55959;51.244;5.724;2022-07-29T06:24:01;20.20;63.00
68922;DHT22;55959;51.244;5.724;2022-07-29T06:26:27;20.20;63.00
68922;DHT22;55959;51.244;5.724;2022-07-29T06:28:53;20.20;63.10
68922;DHT22;55959;51.244;5.724;2022-07-29T06:31:19;20.30;63.20
68922;DHT22;55959;51.244;5.724;2022-07-29T06:33:44;20.20;63.10
68922;DHT22;55959;51.244;5.724;2022-07-29T06:36:10;20.20;63.20
68922;DHT22;55959;51.244;5.724;2022-07-29T06:38:36;20.30;63.30
68922;DHT22;55959;51.244;5.724;2022-07-29T06:41:03;20.30;63.40
68922;DHT22;55959;51.244;5.724;2022-07-29T06:43:32;20.30;63.50
68922;DHT22;55959;51.244;5.724;2022-07-29T06:46:07;20.30;63.60
68922;DHT22;55959;51.244;5.724;2022-07-29T06:48:35;20.30;63.90
68922;DHT22;55959;51.244;5.724;2022-07-29T06:51:02;20.40;64.00
68922;DHT22;55959;51.244;5.724;2022-07-29T06:53:29;20.40;64.10
68922;DHT22;55959;51.244;5.724;2022-07-29T06:55:56;20.40;64.20
68922;DHT22;55959;51.244;5.724;2022-07-29T06:58:23;20.50;64.20
68922;DHT22;55959;51.244;5.724;2022-07-29T07:00:49;20.50;64.10
68922;DHT22;55959;51.244;5.724;2022-07-29T07:03:16;20.50;64.10
68922;DHT22;55959;51.244;5.724;2022-07-29T07:05:42;20.60;64.10
68922;DHT22;55959;51.244;5.724;2022-07-29T07:08:09;20.60;64.00
68922;DHT22;55959;51.244;5.724;2022-07-29T07:10:35;20.60;64.00
68922;DHT22;55959;51.244;5.724;2022-07-29T07:13:01;20.70;64.20
68922;DHT22;55959;51.244;5.724;2022-07-29T07:15:28;20.70;64.30
68922;DHT22;55959;51.244;5.724;2022-07-29T07:17:54;20.70;64.60
68922;DHT22;55959;51.244;5.724;2022-07-29T07:20:20;20.70;64.80
68922;DHT22;55959;51.244;5.724;2022-07-29T07:22:45;20.70;65.00
68922;DHT22;55959;51.244;5.724;2022-07-29T07:25:12;20.70;65.00
68922;DHT22;55959;51.244;5.724;2022-07-29T07:27:38;20.80;65.20
68922;DHT22;55959;51.244;5.724;2022-07-29T07:30:06;20.80;65.40
68922;DHT22;55959;51.244;5.724;2022-07-29T07:32:35;20.80;65.40
68922;DHT22;55959;51.244;5.724;2022-07-29T07:35:02;20.90;65.70
68922;DHT22;55959;51.244;5.724;2022-07-29T07:37:29;21.00;65.50
68922;DHT22;55959;51.244;5.724;2022-07-29T07:39:55;21.00;65.80
68922;DHT22;55959;51.244;5.724;2022-07-29T07:42:20;21.10;66.00
68922;DHT22;55959;51.244;5.724;2022-07-29T07:44:46;21.20;65.90
68922;DHT22;55959;51.244;5.724;2022-07-29T07:47:14;21.20;65.80
68922;DHT22;55959;51.244;5.724;2022-07-29T07:49:48;21.40;65.40
68922;DHT22;55959;51.244;5.724;2022-07-29T07:52:15;21.40;64.70
68922;DHT22;55959;51.244;5.724;2022-07-29T07:54:42;21.50;64.80
68922;DHT22;55959;51.244;5.724;2022-07-29T07:57:09;21.60;65.00
68922;DHT22;55959;51.244;5.724;2022-07-29T07:59:35;21.60;64.40
68922;DHT22;55959;51.244;5.724;2022-07-29T08:02:01;21.70;64.40
68922;DHT22;55959;51.244;5.724;2022-07-29T08:04:26;21.80;64.20
68922;DHT22;55959;51.244;5.724;2022-07-29T08:06:53;21.80;64.00
68922;DHT22;55959;51.244;5.724;2022-07-29T08:09:20;21.80;63.60
68922;DHT22;55959;51.244;5.724;2022-07-29T08:11:46;21.80;63.40
68922;DHT22;55959;51.244;5.724;2022-07-29T08:14:12;21.90;63.40
68922;DHT22;55959;51.244;5.724;2022-07-29T08:16:39;21.90;64.30
68922;DHT22;55959;51.244;5.724;2022-07-29T08:19:06;22.00;63.30
68922;DHT22;55959;51.244;5.724;2022-07-29T08:21:32;22.00;62.90
68922;DHT22;55959;51.244;5.724;2022-07-29T08:23:57;22.00;62.60
68922;DHT22;55959;51.244;5.724;2022-07-29T08:26:42;22.10;62.90
68922;DHT22;55959;51.244;5.724;2022-07-29T08:29:09;22.10;63.10
68922;DHT22;55959;51.244;5.724;2022-07-29T08:31:36;22.20;63.20
68922;DHT22;55959;51.244;5.724;2022-07-29T08:34:03;22.30;61.90
68922;DHT22;55959;51.244;5.724;2022-07-29T08:36:30;22.30;61.90
68922;DHT22;55959;51.244;5.724;2022-07-29T08:38:56;22.30;61.70
68922;DHT22;55959;51.244;5.724;2022-07-29T08:41:23;22.40;61.30
68922;DHT22;55959;51.244;5.724;2022-07-29T08:43:50;22.50;61.00
68922;DHT22;55959;51.244;5.724;2022-07-29T08:46:16;22.50;60.50
68922;DHT22;55959;51.244;5.724;2022-07-29T08:48:43;22.50;60.70
68922;DHT22;55959;51.244;5.724;2022-07-29T08:51:18;22.60;61.10
68922;DHT22;55959;51.244;5.724;2022-07-29T08:53:45;22.60;60.60
68922;DHT22;55959;51.244;5.724;2022-07-29T08:56:15;22.70;60.20
68922;DHT22;55959;51.244;5.724;2022-07-29T08:58:46;22.70;59.70
68922;DHT22;55959;51.244;5.724;2022-07-29T09:01:17;22.70;59.70
68922;DHT22;55959;51.244;5.724;2022-07-29T09:03:48;22.70;59.80
68922;DHT22;55959;51.244;5.724;2022-07-29T09:06:17;22.70;58.70
68922;DHT22;55959;51.244;5.724;2022-07-29T09:08:46;22.80;58.40
68922;DHT22;55959;51.244;5.724;2022-07-29T09:11:13;22.80;58.70
68922;DHT22;55959;51.244;5.724;2022-07-29T09:13:40;22.80;58.80
68922;DHT22;55959;51.244;5.724;2022-07-29T09:16:06;22.80;58.40
68922;DHT22;55959;51.244;5.724;2022-07-29T09:18:40;22.80;58.40
68922;DHT22;55959;51.244;5.724;2022-07-29T09:21:09;22.90;58.50
68922;DHT22;55959;51.244;5.724;2022-07-29T09:24:12;22.90;57.70
68922;DHT22;55959;51.244;5.724;2022-07-29T09:26:40;22.90;57.60
68922;DHT22;55959;51.244;5.724;2022-07-29T09:29:13;22.90;58.00
68922;DHT22;55959;51.244;5.724;2022-07-29T09:31:45;23.00;58.20
68922;DHT22;55959;51.244;5.724;2022-07-29T09:34:14;23.00;58.00
68922;DHT22;55959;51.244;5.724;2022-07-29T09:36:46;23.10;58.20
68922;DHT22;55959;51.244;5.724;2022-07-29T09:39:15;23.10;58.20
68922;DHT22;55959;51.244;5.724;2022-07-29T09:41:56;23.20;58.90
68922;DHT22;55959;51.244;5.724;2022-07-29T09:44:23;23.30;58.20
68922;DHT22;55959;51.244;5.724;2022-07-29T09:47:02;23.30;58.20
68922;DHT22;55959;51.244;5.724;2022-07-29T09:49:32;23.40;58.30
68922;DHT22;55959;51.244;5.724;2022-07-29T09:52:08;23.50;58.00
68922;DHT22;55959;51.244;5.724;2022-07-29T09:54:35;23.50;57.60
68922;DHT22;55959;51.244;5.724;2022-07-29T09:57:04;23.50;57.70
68922;DHT22;55959;51.244;5.724;2022-07-29T09:59:32;23.60;57.70
68922;DHT22;55959;51.244;5.724;2022-07-29T10:01:59;23.70;57.40
68922;DHT22;55959;51.244;5.724;2022-07-29T10:04:42;23.70;57.50
68922;DHT22;55959;51.244;5.724;2022-07-29T10:07:08;23.80;58.30
68922;DHT22;55959;51.244;5.724;2022-07-29T10:09:35;23.90;57.00
68922;DHT22;55959;51.244;5.724;2022-07-29T10:12:12;23.90;57.10
68922;DHT22;55959;51.244;5.724;2022-07-29T10:14:40;24.00;57.40
68922;DHT22;55959;51.244;5.724;2022-07-29T10:17:07;24.10;57.10
68922;DHT22;55959;51.244;5.724;2022-07-29T10:19:37;24.10;57.10
68922;DHT22;55959;51.244;5.724;2022-07-29T10:22:08;24.20;57.20
68922;DHT22;55959;51.244;5.724;2022-07-29T10:24:36;24.30;57.50
68922;DHT22;55959;51.244;5.724;2022-07-29T10:27:05;24.40;56.90
68922;DHT22;55959;51.244;5.724;2022-07-29T10:29:32;24.50;57.00
68922;DHT22;55959;51.244;5.724;2022-07-29T10:35:06;24.60;55.70
68922;DHT22;55959;51.244;5.724;2022-07-29T10:44:09;24.90;55.60
68922;DHT22;55959;51.244;5.724;2022-07-29T10:46:42;25.00;56.10
68922;DHT22;55959;51.244;5.724;2022-07-29T10:52:05;25.10;55.50
68922;DHT22;55959;51.244;5.724;2022-07-29T10:54:44;25.20;55.60
68922;DHT22;55959;51.244;5.724;2022-07-29T10:57:21;25.30;55.80
68922;DHT22;55959;51.244;5.724;2022-07-29T11:05:00;25.50;54.30
68922;DHT22;55959;51.244;5.724;2022-07-29T11:07:30;25.60;53.60
68922;DHT22;55959;51.244;5.724;2022-07-29T11:15:11;25.80;52.30
68922;DHT22;55959;51.244;5.724;2022-07-29T11:20:43;26.00;51.80
68922;DHT22;55959;51.244;5.724;2022-07-29T11:23:31;26.00;52.40
68922;DHT22;55959;51.244;5.724;2022-07-29T11:26:19;26.10;51.90
68922;DHT22;55959;51.244;5.724;2022-07-29T11:28:54;26.20;51.70
68922;DHT22;55959;51.244;5.724;2022-07-29T11:34:28;26.30;50.80
68922;DHT22;55959;51.244;5.724;2022-07-29T11:39:38;26.50;50.80
68922;DHT22;55959;51.244;5.724;2022-07-29T11:45:12;26.60;50.90
68922;DHT22;55959;51.244;5.724;2022-07-29T11:47:49;26.60;50.90
68922;DHT22;55959;51.244;5.724;2022-07-29T11:50:39;26.70;50.90
68922;DHT22;55959;51.244;5.724;2022-07-29T11:53:11;26.80;51.10
68922;DHT22;55959;51.244;5.724;2022-07-29T11:55:39;26.90;51.30
68922;DHT22;55959;51.244;5.724;2022-07-29T11:58:05;26.90;50.00
68922;DHT22;55959;51.244;5.724;2022-07-29T12:00:39;27.00;50.20
68922;DHT22;55959;51.244;5.724;2022-07-29T12:03:08;27.10;50.60
68922;DHT22;55959;51.244;5.724;2022-07-29T12:05:44;27.10;50.50
68922;DHT22;55959;51.244;5.724;2022-07-29T12:08:17;27.10;50.30
68922;DHT22;55959;51.244;5.724;2022-07-29T12:10:45;27.30;50.00
68922;DHT22;55959;51.244;5.724;2022-07-29T12:13:12;27.30;49.30
68922;DHT22;55959;51.244;5.724;2022-07-29T12:15:40;27.40;49.10
68922;DHT22;55959;51.244;5.724;2022-07-29T12:18:19;27.40;49.00
68922;DHT22;55959;51.244;5.724;2022-07-29T12:20:47;27.50;49.20
68922;DHT22;55959;51.244;5.724;2022-07-29T12:23:14;27.50;48.50
68922;DHT22;55959;51.244;5.724;2022-07-29T12:25:43;27.50;48.20
68922;DHT22;55959;51.244;5.724;2022-07-29T12:28:11;27.60;48.00
68922;DHT22;55959;51.244;5.724;2022-07-29T12:33:24;27.70;47.90
68922;DHT22;55959;51.244;5.724;2022-07-29T12:35:56;27.70;47.40
68922;DHT22;55959;51.244;5.724;2022-07-29T12:38:23;27.70;47.60
68922;DHT22;55959;51.244;5.724;2022-07-29T12:40:49;27.80;47.80
68922;DHT22;55959;51.244;5.724;2022-07-29T12:43:18;27.80;47.90
68922;DHT22;55959;51.244;5.724;2022-07-29T12:45:57;27.90;47.20
68922;DHT22;55959;51.244;5.724;2022-07-29T12:48:37;28.00;46.60
68922;DHT22;55959;51.244;5.724;2022-07-29T12:51:05;28.00;47.10
68922;DHT22;55959;51.244;5.724;2022-07-29T12:53:33;28.10;46.60
68922;DHT22;55959;51.244;5.724;2022-07-29T12:55:59;28.10;45.50
68922;DHT22;55959;51.244;5.724;2022-07-29T13:01:02;28.30;45.10
68922;DHT22;55959;51.244;5.724;2022-07-29T13:09:10;28.40;44.60
68922;DHT22;55959;51.244;5.724;2022-07-29T13:11:52;28.40;44.80
68922;DHT22;55959;51.244;5.724;2022-07-29T13:14:47;28.50;45.60
68922;DHT22;55959;51.244;5.724;2022-07-29T13:17:21;28.60;45.80
68922;DHT22;55959;51.244;5.724;2022-07-29T13:20:05;28.70;44.80
68922;DHT22;55959;51.244;5.724;2022-07-29T13:22:34;28.80;45.20
68922;DHT22;55959;51.244;5.724;2022-07-29T13:25:02;28.80;44.10
68922;DHT22;55959;51.244;5.724;2022-07-29T13:27:33;28.80;44.50
68922;DHT22;55959;51.244;5.724;2022-07-29T13:30:04;28.90;44.90
68922;DHT22;55959;51.244;5.724;2022-07-29T13:32:32;28.90;43.10
68922;DHT22;55959;51.244;5.724;2022-07-29T13:35:01;28.80;42.70
68922;DHT22;55959;51.244;5.724;2022-07-29T13:37:29;28.80;43.10
68922;DHT22;55959;51.244;5.724;2022-07-29T13:39:58;28.80;43.60
68922;DHT22;55959;51.244;5.724;2022-07-29T13:42:26;28.80;44.50
68922;DHT22;55959;51.244;5.724;2022-07-29T13:44:52;28.90;44.80
68922;DHT22;55959;51.244;5.724;2022-07-29T13:47:21;29.00;44.30
68922;DHT22;55959;51.244;5.724;2022-07-29T13:49:48;29.00;44.40
68922;DHT22;55959;51.244;5.724;2022-07-29T13:52:14;29.10;44.60
68922;DHT22;55959;51.244;5.724;2022-07-29T13:54:40;29.20;44.10
68922;DHT22;55959;51.244;5.724;2022-07-29T13:57:07;29.20;42.20
68922;DHT22;55959;51.244;5.724;2022-07-29T13:59:33;29.20;42.60
68922;DHT22;55959;51.244;5.724;2022-07-29T14:01:59;29.30;43.00
68922;DHT22;55959;51.244;5.724;2022-07-29T14:04:25;29.30;43.30
68922;DHT22;55959;51.244;5.724;2022-07-29T14:06:51;29.30;43.20
68922;DHT22;55959;51.244;5.724;2022-07-29T14:09:17;29.40;42.80
68922;DHT22;55959;51.244;5.724;2022-07-29T14:11:43;29.40;42.50
68922;DHT22;55959;51.244;5.724;2022-07-29T14:14:09;29.50;42.70
68922;DHT22;55959;51.244;5.724;2022-07-29T14:16:36;29.50;42.90
68922;DHT22;55959;51.244;5.724;2022-07-29T14:19:02;29.60;43.20
68922;DHT22;55959;51.244;5.724;2022-07-29T14:21:28;29.60;42.80
68922;DHT22;55959;51.244;5.724;2022-07-29T14:23:53;29.80;42.90
68922;DHT22;55959;51.244;5.724;2022-07-29T14:26:20;29.80;42.10
68922;DHT22;55959;51.244;5.724;2022-07-29T14:28:47;29.90;42.00
68922;DHT22;55959;51.244;5.724;2022-07-29T14:31:14;29.90;41.70
68922;DHT22;55959;51.244;5.724;2022-07-29T14:33:40;29.90;41.00
68922;DHT22;55959;51.244;5.724;2022-07-29T14:36:06;29.90;40.30
68922;DHT22;55959;51.244;5.724;2022-07-29T14:38:32;29.90;40.30
68922;DHT22;55959;51.244;5.724;2022-07-29T14:40:57;29.90;41.10
68922;DHT22;55959;51.244;5.724;2022-07-29T14:43:23;29.90;41.30
68922;DHT22;55959;51.244;5.724;2022-07-29T14:45:50;29.90;40.40
68922;DHT22;55959;51.244;5.724;2022-07-29T14:48:16;29.80;40.40
68922;DHT22;55959;51.244;5.724;2022-07-29T14:50:41;29.80;40.60
68922;DHT22;55959;51.244;5.724;2022-07-29T14:53:07;29.80;41.10
68922;DHT22;55959;51.244;5.724;2022-07-29T14:55:33;29.80;40.90
68922;DHT22;55959;51.244;5.724;2022-07-29T14:57:59;29.80;41.00
68922;DHT22;55959;51.244;5.724;2022-07-29T15:00:25;29.80;40.30
68922;DHT22;55959;51.244;5.724;2022-07-29T15:02:51;29.70;40.20
68922;DHT22;55959;51.244;5.724;2022-07-29T15:05:17;29.70;39.50
68922;DHT22;55959;51.244;5.724;2022-07-29T15:07:42;29.60;39.50
68922;DHT22;55959;51.244;5.724;2022-07-29T15:10:08;29.60;39.70
68922;DHT22;55959;51.244;5.724;2022-07-29T15:12:35;29.60;39.80
68922;DHT22;55959;51.244;5.724;2022-07-29T15:15:00;29.50;40.30
68922;DHT22;55959;51.244;5.724;2022-07-29T15:17:26;29.50;41.20
68922;DHT22;55959;51.244;5.724;2022-07-29T15:19:52;29.50;41.60
68922;DHT22;55959;51.244;5.724;2022-07-29T15:22:19;29.60;41.20
68922;DHT22;55959;51.244;5.724;2022-07-29T15:24:44;29.60;41.00
68922;DHT22;55959;51.244;5.724;2022-07-29T15:27:10;29.60;41.20
68922;DHT22;55959;51.244;5.724;2022-07-29T15:29:42;29.70;41.30
68922;DHT22;55959;51.244;5.724;2022-07-29T15:32:09;29.70;40.30
68922;DHT22;55959;51.244;5.724;2022-07-29T15:34:36;29.80;40.50
68922;DHT22;55959;51.244;5.724;2022-07-29T15:37:04;29.70;40.10
68922;DHT22;55959;51.244;5.724;2022-07-29T15:39:30;29.80;39.90
68922;DHT22;55959;51.244;5.724;2022-07-29T15:41:56;29.80;39.50
68922;DHT22;55959;51.244;5.724;2022-07-29T15:44:22;29.80;39.70
68922;DHT22;55959;51.244;5.724;2022-07-29T15:46:48;29.90;39.70
68922;DHT22;55959;51.244;5.724;2022-07-29T15:49:34;29.90;39.90
68922;DHT22;55959;51.244;5.724;2022-07-29T15:52:05;29.90;39.80
68922;DHT22;55959;51.244;5.724;2022-07-29T15:54:33;30.00;39.30
68922;DHT22;55959;51.244;5.724;2022-07-29T15:57:00;30.10;39.30
68922;DHT22;55959;51.244;5.724;2022-07-29T15:59:26;30.10;38.50
68922;DHT22;55959;51.244;5.724;2022-07-29T16:01:52;30.10;38.30
68922;DHT22;55959;51.244;5.724;2022-07-29T16:04:18;30.10;38.60
68922;DHT22;55959;51.244;5.724;2022-07-29T16:06:45;30.10;38.40
68922;DHT22;55959;51.244;5.724;2022-07-29T16:09:12;30.10;38.60
68922;DHT22;55959;51.244;5.724;2022-07-29T16:11:39;30.10;38.30
68922;DHT22;55959;51.244;5.724;2022-07-29T16:14:06;30.10;38.60
68922;DHT22;55959;51.244;5.724;2022-07-29T16:16:32;30.10;38.40
68922;DHT22;55959;51.244;5.724;2022-07-29T16:18:58;30.10;38.80
68922;DHT22;55959;51.244;5.724;2022-07-29T16:21:24;30.10;39.10
68922;DHT22;55959;51.244;5.724;2022-07-29T16:23:50;30.10;38.50
68922;DHT22;55959;51.244;5.724;2022-07-29T16:26:16;30.10;38.30
68922;DHT22;55959;51.244;5.724;2022-07-29T16:28:42;30.10;38.00
68922;DHT22;55959;51.244;5.724;2022-07-29T16:31:08;30.10;38.30
68922;DHT22;55959;51.244;5.724;2022-07-29T16:33:34;30.10;38.50
68922;DHT22;55959;51.244;5.724;2022-07-29T16:36:00;30.10;38.30
68922;DHT22;55959;51.244;5.724;2022-07-29T16:38:26;30.10;38.00
68922;DHT22;55959;51.244;5.724;2022-07-29T16:40:52;30.10;37.40
68922;DHT22;55959;51.244;5.724;2022-07-29T16:43:18;30.10;37.60
68922;DHT22;55959;51.244;5.724;2022-07-29T16:45:44;30.00;37.80
68922;DHT22;55959;51.244;5.724;2022-07-29T16:48:11;30.00;38.00
68922;DHT22;55959;51.244;5.724;2022-07-29T16:50:37;30.00;37.60
68922;DHT22;55959;51.244;5.724;2022-07-29T16:53:04;29.90;37.40
68922;DHT22;55959;51.244;5.724;2022-07-29T16:55:30;29.90;37.80
68922;DHT22;55959;51.244;5.724;2022-07-29T16:57:55;29.90;37.80